sensor_id;sensor_type;location;lat;lon;timestamp;P1;durP1;ratioP1;P2;durP2;ratioP2
18532;SDS011;9396;51.510;11.934;2023-02-23T00:00:51;18.23;;;11.23;;
18532;SDS011;9396;51.510;11.934;2023-02-23T00:03:18;16.60;;;11.13;;
18532;SDS011;9396;51.510;11.934;2023-02-23T00:05:44;16.87;;;10.37;;
18532;SDS011;9396;51.510;11.934;2023-02-23T00:08:12;15.10;;;10.60;;
18532;SDS011;9396;51.510;11.934;2023-02-23T00:10:39;17.17;;;10.80;;
18532;SDS011;9396;51.510;11.934;2023-02-23T00:13:08;17.77;;;10.90;;
18532;SDS011;9396;51.510;11.934;2023-02-23T00:15:35;16.33;;;10.40;;
18532;SDS011;9396;51.510;11.934;2023-02-23T00:18:02;17.77;;;10.87;;
18532;SDS011;9396;51.510;11.934;2023-02-23T00:20:30;16.03;;;10.73;;
18532;SDS011;9396;51.510;11.934;2023-02-23T00:22:56;16.37;;;10.67;;
18532;SDS011;9396;51.510;11.934;2023-02-23T00:25:24;16.53;;;10.73;;
18532;SDS011;9396;51.510;11.934;2023-02-23T00:27:55;16.40;;;10.97;;
18532;SDS011;9396;51.510;11.934;2023-02-23T00:30:21;17.37;;;10.27;;
18532;SDS011;9396;51.510;11.934;2023-02-23T00:32:49;19.07;;;10.70;;
18532;SDS011;9396;51.510;11.934;2023-02-23T00:35:16;16.33;;;9.70;;
18532;SDS011;9396;51.510;11.934;2023-02-23T00:37:43;17.93;;;10.40;;
18532;SDS011;9396;51.510;11.934;2023-02-23T00:40:11;16.80;;;10.33;;
18532;SDS011;9396;51.510;11.934;2023-02-23T00:42:42;16.27;;;10.43;;
18532;SDS011;9396;51.510;11.934;2023-02-23T00:45:10;13.53;;;10.47;;
18532;SDS011;9396;51.510;11.934;2023-02-23T00:47:38;14.70;;;10.30;;
18532;SDS011;9396;51.510;11.934;2023-02-23T00:50:06;16.03;;;9.70;;
18532;SDS011;9396;51.510;11.934;2023-02-23T00:52:37;15.90;;;9.90;;
18532;SDS011;9396;51.510;11.934;2023-02-23T00:55:05;19.40;;;11.30;;
18532;SDS011;9396;51.510;11.934;2023-02-23T00:57:32;17.27;;;10.67;;
18532;SDS011;9396;51.510;11.934;2023-02-23T01:00:01;18.47;;;10.10;;
18532;SDS011;9396;51.510;11.934;2023-02-23T01:02:37;16.40;;;10.70;;
18532;SDS011;9396;51.510;11.934;2023-02-23T01:05:04;14.17;;;9.57;;
18532;SDS011;9396;51.510;11.934;2023-02-23T01:07:31;15.70;;;10.60;;
18532;SDS011;9396;51.510;11.934;2023-02-23T01:09:57;15.20;;;10.20;;
18532;SDS011;9396;51.510;11.934;2023-02-23T01:12:24;17.60;;;10.57;;
18532;SDS011;9396;51.510;11.934;2023-02-23T01:14:50;16.17;;;10.53;;
18532;SDS011;9396;51.510;11.934;2023-02-23T01:17:18;16.67;;;10.47;;
18532;SDS011;9396;51.510;11.934;2023-02-23T01:19:46;14.57;;;10.07;;
18532;SDS011;9396;51.510;11.934;2023-02-23T01:22:12;17.63;;;10.97;;
18532;SDS011;9396;51.510;11.934;2023-02-23T01:24:39;16.83;;;11.10;;
18532;SDS011;9396;51.510;11.934;2023-02-23T01:27:06;16.83;;;11.47;;
18532;SDS011;9396;51.510;11.934;2023-02-23T01:29:33;15.63;;;11.27;;
18532;SDS011;9396;51.510;11.934;2023-02-23T01:32:00;17.33;;;11.97;;
18532;SDS011;9396;51.510;11.934;2023-02-23T01:34:28;15.73;;;10.33;;
18532;SDS011;9396;51.510;11.934;2023-02-23T01:36:54;16.73;;;10.03;;
18532;SDS011;9396;51.510;11.934;2023-02-23T01:39:21;17.80;;;11.73;;
18532;SDS011;9396;51.510;11.934;2023-02-23T01:41:48;16.23;;;11.43;;
18532;SDS011;9396;51.510;11.934;2023-02-23T01:47:22;14.90;;;10.23;;
18532;SDS011;9396;51.510;11.934;2023-02-23T01:49:52;18.13;;;10.83;;
18532;SDS011;9396;51.510;11.934;2023-02-23T01:52:18;17.43;;;11.73;;
18532;SDS011;9396;51.510;11.934;2023-02-23T01:54:46;19.67;;;11.60;;
18532;SDS011;9396;51.510;11.934;2023-02-23T01:57:17;16.80;;;10.33;;
18532;SDS011;9396;51.510;11.934;2023-02-23T01:59:49;13.73;;;9.57;;
18532;SDS011;9396;51.510;11.934;2023-02-23T02:02:16;17.30;;;10.37;;
18532;SDS011;9396;51.510;11.934;2023-02-23T02:04:45;20.13;;;11.93;;
18532;SDS011;9396;51.510;11.934;2023-02-23T02:07:18;17.43;;;10.60;;
18532;SDS011;9396;51.510;11.934;2023-02-23T02:09:48;17.23;;;10.87;;
18532;SDS011;9396;51.510;11.934;2023-02-23T02:12:48;18.27;;;9.90;;
18532;SDS011;9396;51.510;11.934;2023-02-23T02:15:17;16.47;;;10.53;;
18532;SDS011;9396;51.510;11.934;2023-02-23T02:17:51;18.10;;;10.67;;
18532;SDS011;9396;51.510;11.934;2023-02-23T02:23:46;19.03;;;11.57;;
18532;SDS011;9396;51.510;11.934;2023-02-23T02:26:24;17.13;;;11.80;;
18532;SDS011;9396;51.510;11.934;2023-02-23T02:29:16;20.27;;;12.57;;
18532;SDS011;9396;51.510;11.934;2023-02-23T02:35:34;16.53;;;10.67;;
18532;SDS011;9396;51.510;11.934;2023-02-23T02:38:22;16.90;;;11.30;;
18532;SDS011;9396;51.510;11.934;2023-02-23T02:41:00;20.63;;;11.80;;
18532;SDS011;9396;51.510;11.934;2023-02-23T02:43:34;18.57;;;11.80;;
18532;SDS011;9396;51.510;11.934;2023-02-23T02:46:08;16.57;;;10.70;;
18532;SDS011;9396;51.510;11.934;2023-02-23T02:48:40;17.63;;;10.83;;
18532;SDS011;9396;51.510;11.934;2023-02-23T02:51:15;17.80;;;11.20;;
18532;SDS011;9396;51.510;11.934;2023-02-23T02:53:50;17.90;;;11.50;;
18532;SDS011;9396;51.510;11.934;2023-02-23T02:56:24;17.60;;;10.83;;
18532;SDS011;9396;51.510;11.934;2023-02-23T02:58:52;15.87;;;10.40;;
18532;SDS011;9396;51.510;11.934;2023-02-23T03:01:19;17.23;;;10.97;;
18532;SDS011;9396;51.510;11.934;2023-02-23T03:04:18;20.90;;;11.73;;
18532;SDS011;9396;51.510;11.934;2023-02-23T03:07:04;19.80;;;11.20;;
18532;SDS011;9396;51.510;11.934;2023-02-23T03:09:55;17.00;;;10.77;;
18532;SDS011;9396;51.510;11.934;2023-02-23T03:12:49;22.00;;;10.17;;
18532;SDS011;9396;51.510;11.934;2023-02-23T03:15:42;17.53;;;11.50;;
18532;SDS011;9396;51.510;11.934;2023-02-23T03:18:39;19.80;;;11.40;;
18532;SDS011;9396;51.510;11.934;2023-02-23T03:21:40;18.53;;;10.70;;
18532;SDS011;9396;51.510;11.934;2023-02-23T03:24:33;18.60;;;11.47;;
18532;SDS011;9396;51.510;11.934;2023-02-23T03:27:25;19.47;;;11.63;;
18532;SDS011;9396;51.510;11.934;2023-02-23T03:30:18;17.70;;;10.40;;
18532;SDS011;9396;51.510;11.934;2023-02-23T03:33:08;17.47;;;11.20;;
18532;SDS011;9396;51.510;11.934;2023-02-23T03:35:56;18.50;;;11.70;;
18532;SDS011;9396;51.510;11.934;2023-02-23T03:38:45;18.80;;;10.97;;
18532;SDS011;9396;51.510;11.934;2023-02-23T03:41:37;18.10;;;11.70;;
18532;SDS011;9396;51.510;11.934;2023-02-23T03:44:26;22.47;;;12.03;;
18532;SDS011;9396;51.510;11.934;2023-02-23T03:47:14;19.47;;;12.63;;
18532;SDS011;9396;51.510;11.934;2023-02-23T03:50:03;17.77;;;11.70;;
18532;SDS011;9396;51.510;11.934;2023-02-23T03:52:53;18.13;;;11.87;;
18532;SDS011;9396;51.510;11.934;2023-02-23T03:55:42;19.73;;;11.87;;
18532;SDS011;9396;51.510;11.934;2023-02-23T03:58:32;18.47;;;12.53;;
18532;SDS011;9396;51.510;11.934;2023-02-23T04:01:21;20.83;;;12.83;;
18532;SDS011;9396;51.510;11.934;2023-02-23T04:04:08;19.67;;;12.67;;
18532;SDS011;9396;51.510;11.934;2023-02-23T04:06:54;20.30;;;11.87;;
18532;SDS011;9396;51.510;11.934;2023-02-23T04:09:41;21.90;;;13.13;;
18532;SDS011;9396;51.510;11.934;2023-02-23T04:12:28;21.13;;;13.20;;
18532;SDS011;9396;51.510;11.934;2023-02-23T04:15:19;20.43;;;12.40;;
18532;SDS011;9396;51.510;11.934;2023-02-23T04:17:50;19.47;;;12.37;;
18532;SDS011;9396;51.510;11.934;2023-02-23T04:20:18;22.47;;;12.73;;
18532;SDS011;9396;51.510;11.934;2023-02-23T04:22:45;17.53;;;11.57;;
18532;SDS011;9396;51.510;11.934;2023-02-23T04:25:12;20.47;;;12.77;;
18532;SDS011;9396;51.510;11.934;2023-02-23T04:27:40;21.93;;;12.40;;
18532;SDS011;9396;51.510;11.934;2023-02-23T04:30:07;19.87;;;12.93;;
18532;SDS011;9396;51.510;11.934;2023-02-23T04:32:35;20.63;;;12.70;;
18532;SDS011;9396;51.510;11.934;2023-02-23T04:35:03;19.80;;;12.93;;
18532;SDS011;9396;51.510;11.934;2023-02-23T04:37:30;21.17;;;13.30;;
18532;SDS011;9396;51.510;11.934;2023-02-23T04:39:57;19.17;;;13.00;;
18532;SDS011;9396;51.510;11.934;2023-02-23T04:42:24;21.40;;;13.30;;
18532;SDS011;9396;51.510;11.934;2023-02-23T04:44:50;18.90;;;13.00;;
18532;SDS011;9396;51.510;11.934;2023-02-23T04:47:17;20.13;;;12.47;;
18532;SDS011;9396;51.510;11.934;2023-02-23T04:49:44;20.60;;;12.87;;
18532;SDS011;9396;51.510;11.934;2023-02-23T04:52:12;20.73;;;13.83;;
18532;SDS011;9396;51.510;11.934;2023-02-23T04:54:38;22.37;;;13.63;;
18532;SDS011;9396;51.510;11.934;2023-02-23T04:57:05;18.70;;;13.00;;
18532;SDS011;9396;51.510;11.934;2023-02-23T04:59:33;19.17;;;12.73;;
18532;SDS011;9396;51.510;11.934;2023-02-23T05:01:59;20.07;;;12.80;;
18532;SDS011;9396;51.510;11.934;2023-02-23T05:04:26;20.23;;;13.10;;
18532;SDS011;9396;51.510;11.934;2023-02-23T05:06:53;19.80;;;11.90;;
18532;SDS011;9396;51.510;11.934;2023-02-23T05:09:21;18.20;;;12.53;;
18532;SDS011;9396;51.510;11.934;2023-02-23T05:11:47;23.37;;;12.97;;
18532;SDS011;9396;51.510;11.934;2023-02-23T05:14:14;20.57;;;13.03;;
18532;SDS011;9396;51.510;11.934;2023-02-23T05:16:41;18.07;;;12.17;;
18532;SDS011;9396;51.510;11.934;2023-02-23T05:19:07;18.17;;;12.53;;
18532;SDS011;9396;51.510;11.934;2023-02-23T05:21:34;22.73;;;12.70;;
18532;SDS011;9396;51.510;11.934;2023-02-23T05:24:01;19.67;;;12.77;;
18532;SDS011;9396;51.510;11.934;2023-02-23T05:26:29;17.80;;;12.67;;
18532;SDS011;9396;51.510;11.934;2023-02-23T05:28:55;19.97;;;11.70;;
18532;SDS011;9396;51.510;11.934;2023-02-23T05:31:22;19.13;;;12.33;;
18532;SDS011;9396;51.510;11.934;2023-02-23T05:33:50;21.37;;;12.73;;
18532;SDS011;9396;51.510;11.934;2023-02-23T05:36:17;23.83;;;12.37;;
18532;SDS011;9396;51.510;11.934;2023-02-23T05:38:46;18.90;;;12.57;;
18532;SDS011;9396;51.510;11.934;2023-02-23T05:41:14;19.47;;;11.80;;
18532;SDS011;9396;51.510;11.934;2023-02-23T05:43:44;19.30;;;12.50;;
18532;SDS011;9396;51.510;11.934;2023-02-23T05:46:11;21.90;;;12.70;;
18532;SDS011;9396;51.510;11.934;2023-02-23T05:48:41;19.47;;;11.90;;
18532;SDS011;9396;51.510;11.934;2023-02-23T05:51:08;19.13;;;13.40;;
18532;SDS011;9396;51.510;11.934;2023-02-23T05:53:36;20.17;;;12.47;;
18532;SDS011;9396;51.510;11.934;2023-02-23T05:56:04;16.97;;;11.63;;
18532;SDS011;9396;51.510;11.934;2023-02-23T05:58:32;18.20;;;11.50;;
18532;SDS011;9396;51.510;11.934;2023-02-23T06:01:00;16.93;;;10.97;;
18532;SDS011;9396;51.510;11.934;2023-02-23T06:03:27;18.70;;;11.37;;
18532;SDS011;9396;51.510;11.934;2023-02-23T06:05:54;16.93;;;11.63;;
18532;SDS011;9396;51.510;11.934;2023-02-23T06:08:23;20.63;;;12.27;;
18532;SDS011;9396;51.510;11.934;2023-02-23T06:10:50;19.20;;;12.17;;
18532;SDS011;9396;51.510;11.934;2023-02-23T06:13:17;21.30;;;12.47;;
18532;SDS011;9396;51.510;11.934;2023-02-23T06:15:45;16.47;;;11.53;;
18532;SDS011;9396;51.510;11.934;2023-02-23T06:18:14;19.23;;;11.43;;
18532;SDS011;9396;51.510;11.934;2023-02-23T06:20:42;20.43;;;12.40;;
18532;SDS011;9396;51.510;11.934;2023-02-23T06:23:09;22.83;;;11.73;;
18532;SDS011;9396;51.510;11.934;2023-02-23T06:25:36;24.30;;;13.13;;
18532;SDS011;9396;51.510;11.934;2023-02-23T06:28:04;20.97;;;12.63;;
18532;SDS011;9396;51.510;11.934;2023-02-23T06:30:31;19.10;;;12.43;;
18532;SDS011;9396;51.510;11.934;2023-02-23T06:32:58;19.80;;;11.53;;
18532;SDS011;9396;51.510;11.934;2023-02-23T06:35:26;21.43;;;11.97;;
18532;SDS011;9396;51.510;11.934;2023-02-23T06:37:53;17.17;;;11.80;;
18532;SDS011;9396;51.510;11.934;2023-02-23T06:40:20;19.47;;;11.63;;
18532;SDS011;9396;51.510;11.934;2023-02-23T06:42:46;18.73;;;11.67;;
18532;SDS011;9396;51.510;11.934;2023-02-23T06:45:13;20.50;;;12.20;;
18532;SDS011;9396;51.510;11.934;2023-02-23T06:47:39;19.03;;;12.20;;
18532;SDS011;9396;51.510;11.934;2023-02-23T06:50:07;19.07;;;11.60;;
18532;SDS011;9396;51.510;11.934;2023-02-23T06:52:36;17.23;;;11.50;;
18532;SDS011;9396;51.510;11.934;2023-02-23T06:55:03;18.47;;;11.83;;
18532;SDS011;9396;51.510;11.934;2023-02-23T06:57:31;16.90;;;11.67;;
18532;SDS011;9396;51.510;11.934;2023-02-23T06:59:58;18.33;;;11.00;;
18532;SDS011;9396;51.510;11.934;2023-02-23T07:02:25;18.63;;;12.43;;
18532;SDS011;9396;51.510;11.934;2023-02-23T07:04:52;21.23;;;13.20;;
18532;SDS011;9396;51.510;11.934;2023-02-23T07:07:19;22.57;;;13.83;;
18532;SDS011;9396;51.510;11.934;2023-02-23T07:09:47;18.50;;;12.60;;
18532;SDS011;9396;51.510;11.934;2023-02-23T07:12:14;19.77;;;13.20;;
18532;SDS011;9396;51.510;11.934;2023-02-23T07:14:40;22.17;;;12.50;;
18532;SDS011;9396;51.510;11.934;2023-02-23T07:17:07;22.00;;;13.70;;
18532;SDS011;9396;51.510;11.934;2023-02-23T07:19:34;18.20;;;11.87;;
18532;SDS011;9396;51.510;11.934;2023-02-23T07:22:00;18.77;;;12.80;;
18532;SDS011;9396;51.510;11.934;2023-02-23T07:24:27;22.33;;;13.53;;
18532;SDS011;9396;51.510;11.934;2023-02-23T07:26:55;22.97;;;13.27;;
18532;SDS011;9396;51.510;11.934;2023-02-23T07:29:22;22.77;;;14.03;;
18532;SDS011;9396;51.510;11.934;2023-02-23T07:31:49;22.07;;;14.83;;
18532;SDS011;9396;51.510;11.934;2023-02-23T07:34:16;23.73;;;14.20;;
18532;SDS011;9396;51.510;11.934;2023-02-23T07:36:42;20.27;;;13.00;;
18532;SDS011;9396;51.510;11.934;2023-02-23T07:39:09;22.47;;;13.97;;
18532;SDS011;9396;51.510;11.934;2023-02-23T07:41:36;19.10;;;12.60;;
18532;SDS011;9396;51.510;11.934;2023-02-23T07:44:05;28.93;;;15.37;;
18532;SDS011;9396;51.510;11.934;2023-02-23T07:46:31;24.00;;;13.97;;
18532;SDS011;9396;51.510;11.934;2023-02-23T07:48:58;23.53;;;14.07;;
18532;SDS011;9396;51.510;11.934;2023-02-23T07:51:25;19.07;;;11.47;;
18532;SDS011;9396;51.510;11.934;2023-02-23T07:53:52;20.77;;;13.53;;
18532;SDS011;9396;51.510;11.934;2023-02-23T07:56:19;22.53;;;13.43;;
18532;SDS011;9396;51.510;11.934;2023-02-23T07:58:45;24.90;;;15.20;;
18532;SDS011;9396;51.510;11.934;2023-02-23T08:01:13;23.30;;;14.43;;
18532;SDS011;9396;51.510;11.934;2023-02-23T08:03:40;23.37;;;14.67;;
18532;SDS011;9396;51.510;11.934;2023-02-23T08:06:13;24.63;;;15.83;;
18532;SDS011;9396;51.510;11.934;2023-02-23T08:08:40;25.20;;;16.10;;
18532;SDS011;9396;51.510;11.934;2023-02-23T08:11:07;22.70;;;14.63;;
18532;SDS011;9396;51.510;11.934;2023-02-23T08:13:34;23.93;;;15.00;;
18532;SDS011;9396;51.510;11.934;2023-02-23T08:16:01;25.10;;;14.37;;
18532;SDS011;9396;51.510;11.934;2023-02-23T08:18:29;25.60;;;16.07;;
18532;SDS011;9396;51.510;11.934;2023-02-23T08:20:57;22.80;;;15.07;;
18532;SDS011;9396;51.510;11.934;2023-02-23T08:23:24;26.13;;;16.77;;
18532;SDS011;9396;51.510;11.934;2023-02-23T08:25:51;24.13;;;15.17;;
18532;SDS011;9396;51.510;11.934;2023-02-23T08:28:19;25.67;;;16.40;;
18532;SDS011;9396;51.510;11.934;2023-02-23T08:30:46;26.40;;;16.07;;
18532;SDS011;9396;51.510;11.934;2023-02-23T08:33:12;25.10;;;16.13;;
18532;SDS011;9396;51.510;11.934;2023-02-23T08:35:40;24.10;;;14.97;;
18532;SDS011;9396;51.510;11.934;2023-02-23T08:38:08;32.93;;;17.40;;
18532;SDS011;9396;51.510;11.934;2023-02-23T08:40:34;25.90;;;15.93;;
18532;SDS011;9396;51.510;11.934;2023-02-23T08:43:01;24.53;;;15.50;;
18532;SDS011;9396;51.510;11.934;2023-02-23T08:45:28;22.63;;;15.10;;
18532;SDS011;9396;51.510;11.934;2023-02-23T08:47:55;26.07;;;16.27;;
18532;SDS011;9396;51.510;11.934;2023-02-23T08:50:22;27.33;;;16.50;;
18532;SDS011;9396;51.510;11.934;2023-02-23T08:52:50;27.60;;;16.33;;
18532;SDS011;9396;51.510;11.934;2023-02-23T08:55:16;24.57;;;16.33;;
18532;SDS011;9396;51.510;11.934;2023-02-23T08:57:45;25.37;;;16.53;;
18532;SDS011;9396;51.510;11.934;2023-02-23T09:00:12;28.87;;;16.27;;
18532;SDS011;9396;51.510;11.934;2023-02-23T09:02:40;27.33;;;17.10;;
18532;SDS011;9396;51.510;11.934;2023-02-23T09:05:08;26.00;;;16.97;;
18532;SDS011;9396;51.510;11.934;2023-02-23T09:07:36;28.37;;;17.87;;
18532;SDS011;9396;51.510;11.934;2023-02-23T09:10:05;31.00;;;18.73;;
18532;SDS011;9396;51.510;11.934;2023-02-23T09:12:33;24.77;;;17.43;;
18532;SDS011;9396;51.510;11.934;2023-02-23T09:15:00;29.93;;;17.90;;
18532;SDS011;9396;51.510;11.934;2023-02-23T09:17:26;29.10;;;18.80;;
18532;SDS011;9396;51.510;11.934;2023-02-23T09:19:53;27.30;;;18.23;;
18532;SDS011;9396;51.510;11.934;2023-02-23T09:22:19;29.63;;;18.30;;
18532;SDS011;9396;51.510;11.934;2023-02-23T09:24:46;29.73;;;18.67;;
18532;SDS011;9396;51.510;11.934;2023-02-23T09:27:14;27.47;;;19.10;;
18532;SDS011;9396;51.510;11.934;2023-02-23T09:29:41;31.97;;;19.13;;
18532;SDS011;9396;51.510;11.934;2023-02-23T09:32:08;29.73;;;19.27;;
18532;SDS011;9396;51.510;11.934;2023-02-23T09:34:35;29.43;;;19.70;;
18532;SDS011;9396;51.510;11.934;2023-02-23T09:37:02;33.17;;;19.03;;
18532;SDS011;9396;51.510;11.934;2023-02-23T09:39:30;30.00;;;19.23;;
18532;SDS011;9396;51.510;11.934;2023-02-23T09:42:08;35.10;;;20.37;;
18532;SDS011;9396;51.510;11.934;2023-02-23T09:45:02;30.47;;;19.73;;
18532;SDS011;9396;51.510;11.934;2023-02-23T09:47:35;28.03;;;19.40;;
18532;SDS011;9396;51.510;11.934;2023-02-23T09:50:15;30.43;;;19.43;;
18532;SDS011;9396;51.510;11.934;2023-02-23T09:52:47;30.83;;;19.93;;
18532;SDS011;9396;51.510;11.934;2023-02-23T09:55:17;30.90;;;19.77;;
18532;SDS011;9396;51.510;11.934;2023-02-23T09:57:46;44.17;;;20.93;;
18532;SDS011;9396;51.510;11.934;2023-02-23T10:00:17;31.47;;;20.87;;
18532;SDS011;9396;51.510;11.934;2023-02-23T10:02:54;33.90;;;20.00;;
18532;SDS011;9396;51.510;11.934;2023-02-23T10:05:40;36.57;;;22.50;;
18532;SDS011;9396;51.510;11.934;2023-02-23T10:08:15;31.57;;;19.27;;
18532;SDS011;9396;51.510;11.934;2023-02-23T10:10:49;41.57;;;22.60;;
18532;SDS011;9396;51.510;11.934;2023-02-23T10:13:24;32.90;;;20.13;;
18532;SDS011;9396;51.510;11.934;2023-02-23T10:16:05;39.23;;;23.57;;
18532;SDS011;9396;51.510;11.934;2023-02-23T10:18:39;33.77;;;21.63;;
18532;SDS011;9396;51.510;11.934;2023-02-23T10:21:14;33.20;;;21.83;;
18532;SDS011;9396;51.510;11.934;2023-02-23T10:23:45;37.43;;;21.70;;
18532;SDS011;9396;51.510;11.934;2023-02-23T10:26:17;36.80;;;21.67;;
18532;SDS011;9396;51.510;11.934;2023-02-23T10:28:47;36.00;;;21.77;;
18532;SDS011;9396;51.510;11.934;2023-02-23T10:31:21;32.87;;;21.73;;
18532;SDS011;9396;51.510;11.934;2023-02-23T10:33:53;33.47;;;21.47;;
18532;SDS011;9396;51.510;11.934;2023-02-23T10:36:29;34.63;;;22.07;;
18532;SDS011;9396;51.510;11.934;2023-02-23T10:39:00;31.80;;;21.73;;
18532;SDS011;9396;51.510;11.934;2023-02-23T10:41:28;34.53;;;23.33;;
18532;SDS011;9396;51.510;11.934;2023-02-23T10:43:55;36.87;;;22.57;;
18532;SDS011;9396;51.510;11.934;2023-02-23T10:46:24;38.17;;;23.33;;
18532;SDS011;9396;51.510;11.934;2023-02-23T10:48:56;32.77;;;22.23;;
18532;SDS011;9396;51.510;11.934;2023-02-23T10:51:25;36.47;;;22.90;;
18532;SDS011;9396;51.510;11.934;2023-02-23T10:53:56;32.60;;;21.70;;
18532;SDS011;9396;51.510;11.934;2023-02-23T10:56:23;36.17;;;23.50;;
18532;SDS011;9396;51.510;11.934;2023-02-23T10:58:50;34.67;;;24.83;;
18532;SDS011;9396;51.510;11.934;2023-02-23T11:01:31;35.10;;;23.83;;
18532;SDS011;9396;51.510;11.934;2023-02-23T11:04:11;36.47;;;23.00;;
18532;SDS011;9396;51.510;11.934;2023-02-23T11:06:41;35.67;;;22.93;;
18532;SDS011;9396;51.510;11.934;2023-02-23T11:09:15;39.53;;;25.67;;
18532;SDS011;9396;51.510;11.934;2023-02-23T11:11:54;39.40;;;23.37;;
18532;SDS011;9396;51.510;11.934;2023-02-23T11:14:22;37.47;;;25.00;;
18532;SDS011;9396;51.510;11.934;2023-02-23T11:16:53;42.20;;;26.03;;
18532;SDS011;9396;51.510;11.934;2023-02-23T11:19:23;46.90;;;28.07;;
18532;SDS011;9396;51.510;11.934;2023-02-23T11:21:55;42.57;;;26.77;;
18532;SDS011;9396;51.510;11.934;2023-02-23T11:24:23;41.00;;;26.60;;
18532;SDS011;9396;51.510;11.934;2023-02-23T11:26:52;47.00;;;28.90;;
18532;SDS011;9396;51.510;11.934;2023-02-23T11:29:24;45.13;;;27.27;;
18532;SDS011;9396;51.510;11.934;2023-02-23T11:31:58;46.07;;;27.70;;
18532;SDS011;9396;51.510;11.934;2023-02-23T11:34:30;51.00;;;29.27;;
18532;SDS011;9396;51.510;11.934;2023-02-23T11:37:00;51.13;;;30.30;;
18532;SDS011;9396;51.510;11.934;2023-02-23T11:39:28;45.30;;;29.50;;
18532;SDS011;9396;51.510;11.934;2023-02-23T11:42:13;50.47;;;30.53;;
18532;SDS011;9396;51.510;11.934;2023-02-23T11:44:48;49.47;;;29.60;;
18532;SDS011;9396;51.510;11.934;2023-02-23T11:47:18;52.23;;;30.53;;
18532;SDS011;9396;51.510;11.934;2023-02-23T11:49:47;54.60;;;30.83;;
18532;SDS011;9396;51.510;11.934;2023-02-23T11:52:15;54.83;;;32.10;;
18532;SDS011;9396;51.510;11.934;2023-02-23T11:54:48;45.50;;;29.47;;
18532;SDS011;9396;51.510;11.934;2023-02-23T11:57:19;50.30;;;30.03;;
18532;SDS011;9396;51.510;11.934;2023-02-23T11:59:47;55.50;;;31.27;;
18532;SDS011;9396;51.510;11.934;2023-02-23T12:02:19;51.60;;;30.93;;
18532;SDS011;9396;51.510;11.934;2023-02-23T12:04:49;50.47;;;30.63;;
18532;SDS011;9396;51.510;11.934;2023-02-23T12:07:28;57.60;;;30.90;;
18532;SDS011;9396;51.510;11.934;2023-02-23T12:10:06;53.33;;;31.33;;
18532;SDS011;9396;51.510;11.934;2023-02-23T12:12:43;45.83;;;29.07;;
18532;SDS011;9396;51.510;11.934;2023-02-23T12:15:15;48.10;;;29.37;;
18532;SDS011;9396;51.510;11.934;2023-02-23T12:17:52;53.70;;;30.50;;
18532;SDS011;9396;51.510;11.934;2023-02-23T12:20:23;53.20;;;30.60;;
18532;SDS011;9396;51.510;11.934;2023-02-23T12:22:53;50.80;;;30.60;;
18532;SDS011;9396;51.510;11.934;2023-02-23T12:25:24;49.47;;;30.23;;
18532;SDS011;9396;51.510;11.934;2023-02-23T12:27:56;50.57;;;30.70;;
18532;SDS011;9396;51.510;11.934;2023-02-23T12:30:30;50.13;;;30.20;;
18532;SDS011;9396;51.510;11.934;2023-02-23T12:33:07;47.87;;;29.10;;
18532;SDS011;9396;51.510;11.934;2023-02-23T12:35:40;52.03;;;29.50;;
18532;SDS011;9396;51.510;11.934;2023-02-23T12:38:14;53.67;;;30.87;;
18532;SDS011;9396;51.510;11.934;2023-02-23T12:40:51;48.30;;;27.80;;
18532;SDS011;9396;51.510;11.934;2023-02-23T12:43:20;47.37;;;29.70;;
18532;SDS011;9396;51.510;11.934;2023-02-23T12:45:52;53.27;;;29.27;;
18532;SDS011;9396;51.510;11.934;2023-02-23T12:48:27;50.23;;;30.87;;
18532;SDS011;9396;51.510;11.934;2023-02-23T12:51:00;56.17;;;31.73;;
18532;SDS011;9396;51.510;11.934;2023-02-23T12:53:33;45.63;;;28.57;;
18532;SDS011;9396;51.510;11.934;2023-02-23T12:56:10;46.03;;;28.20;;
18532;SDS011;9396;51.510;11.934;2023-02-23T12:58:48;52.70;;;30.10;;
18532;SDS011;9396;51.510;11.934;2023-02-23T13:01:23;50.20;;;29.97;;
18532;SDS011;9396;51.510;11.934;2023-02-23T13:04:02;54.07;;;31.10;;
18532;SDS011;9396;51.510;11.934;2023-02-23T13:06:46;50.17;;;29.70;;
18532;SDS011;9396;51.510;11.934;2023-02-23T13:09:23;46.00;;;28.63;;
18532;SDS011;9396;51.510;11.934;2023-02-23T13:12:12;55.90;;;32.10;;
18532;SDS011;9396;51.510;11.934;2023-02-23T13:14:49;53.63;;;30.67;;
18532;SDS011;9396;51.510;11.934;2023-02-23T13:17:32;51.30;;;30.00;;
18532;SDS011;9396;51.510;11.934;2023-02-23T13:20:06;48.90;;;28.97;;
18532;SDS011;9396;51.510;11.934;2023-02-23T13:22:41;44.93;;;28.80;;
18532;SDS011;9396;51.510;11.934;2023-02-23T13:25:23;51.33;;;31.30;;
18532;SDS011;9396;51.510;11.934;2023-02-23T13:27:59;49.50;;;29.07;;
18532;SDS011;9396;51.510;11.934;2023-02-23T13:30:27;48.57;;;27.97;;
18532;SDS011;9396;51.510;11.934;2023-02-23T13:32:57;47.33;;;28.23;;
18532;SDS011;9396;51.510;11.934;2023-02-23T13:35:35;52.47;;;30.67;;
18532;SDS011;9396;51.510;11.934;2023-02-23T13:38:05;46.37;;;28.73;;
18532;SDS011;9396;51.510;11.934;2023-02-23T13:40:40;50.03;;;29.27;;
18532;SDS011;9396;51.510;11.934;2023-02-23T13:43:12;50.93;;;29.67;;
18532;SDS011;9396;51.510;11.934;2023-02-23T13:45:55;48.20;;;29.27;;
18532;SDS011;9396;51.510;11.934;2023-02-23T13:48:41;50.27;;;29.33;;
18532;SDS011;9396;51.510;11.934;2023-02-23T13:51:18;48.50;;;28.67;;
18532;SDS011;9396;51.510;11.934;2023-02-23T13:53:57;47.43;;;29.70;;
18532;SDS011;9396;51.510;11.934;2023-02-23T13:56:26;53.33;;;30.50;;
18532;SDS011;9396;51.510;11.934;2023-02-23T13:58:58;46.83;;;28.03;;
18532;SDS011;9396;51.510;11.934;2023-02-23T14:01:28;50.20;;;28.93;;
18532;SDS011;9396;51.510;11.934;2023-02-23T14:03:56;49.37;;;29.83;;
18532;SDS011;9396;51.510;11.934;2023-02-23T14:06:27;52.17;;;31.30;;
18532;SDS011;9396;51.510;11.934;2023-02-23T14:08:58;49.03;;;29.53;;
18532;SDS011;9396;51.510;11.934;2023-02-23T14:11:27;51.80;;;29.67;;
18532;SDS011;9396;51.510;11.934;2023-02-23T14:14:10;52.73;;;29.80;;
18532;SDS011;9396;51.510;11.934;2023-02-23T14:16:41;54.33;;;30.40;;
18532;SDS011;9396;51.510;11.934;2023-02-23T14:19:13;52.20;;;28.17;;
18532;SDS011;9396;51.510;11.934;2023-02-23T14:21:57;48.53;;;28.73;;
18532;SDS011;9396;51.510;11.934;2023-02-23T14:24:27;46.90;;;29.20;;
18532;SDS011;9396;51.510;11.934;2023-02-23T14:27:10;48.67;;;29.73;;
18532;SDS011;9396;51.510;11.934;2023-02-23T14:30:07;51.67;;;28.47;;
18532;SDS011;9396;51.510;11.934;2023-02-23T14:32:41;47.40;;;27.83;;
18532;SDS011;9396;51.510;11.934;2023-02-23T14:38:10;49.67;;;28.23;;
18532;SDS011;9396;51.510;11.934;2023-02-23T14:40:47;49.00;;;29.63;;
18532;SDS011;9396;51.510;11.934;2023-02-23T14:43:30;49.90;;;30.20;;
18532;SDS011;9396;51.510;11.934;2023-02-23T14:46:15;50.87;;;29.70;;
18532;SDS011;9396;51.510;11.934;2023-02-23T14:48:54;57.07;;;32.70;;
18532;SDS011;9396;51.510;11.934;2023-02-23T14:51:24;52.97;;;31.43;;
18532;SDS011;9396;51.510;11.934;2023-02-23T14:54:00;56.10;;;30.73;;
18532;SDS011;9396;51.510;11.934;2023-02-23T14:56:27;51.33;;;30.47;;
18532;SDS011;9396;51.510;11.934;2023-02-23T14:58:54;50.53;;;31.23;;
18532;SDS011;9396;51.510;11.934;2023-02-23T15:01:34;54.57;;;31.57;;